createdAt,value
2018-04-08T00:02:16.494Z,14.37
2018-04-08T00:04:43.925Z,14.41
2018-04-08T00:07:11.354Z,14.45
2018-04-08T00:09:38.792Z,14.41
2018-04-08T00:12:06.202Z,14.46
2018-04-08T00:14:33.621Z,14.53
2018-04-08T00:17:01.049Z,14.61
2018-04-08T00:19:28.455Z,14.66
2018-04-08T00:21:55.852Z,14.69
2018-04-08T00:24:29.492Z,14.74
2018-04-08T00:26:56.926Z,14.77
2018-04-08T00:29:24.394Z,14.77
2018-04-08T00:31:51.790Z,14.73
2018-04-08T00:34:19.238Z,14.72
2018-04-08T00:36:46.703Z,14.74
2018-04-08T00:39:14.139Z,14.74
2018-04-08T00:41:41.569Z,14.69
2018-04-08T00:44:09.034Z,14.64
2018-04-08T00:46:36.519Z,14.61
2018-04-08T00:49:03.919Z,14.66
2018-04-08T00:51:31.381Z,14.67
2018-04-08T00:54:13.726Z,14.67
2018-04-08T00:56:41.149Z,14.58
2018-04-08T00:59:08.575Z,14.55
2018-04-08T01:01:36.011Z,14.59
2018-04-08T01:04:03.476Z,14.68
2018-04-08T01:06:30.912Z,14.77
2018-04-08T01:08:58.342Z,14.73
2018-04-08T01:11:28.926Z,14.74
2018-04-08T01:13:56.365Z,14.68
2018-04-08T01:16:23.957Z,14.66
2018-04-08T01:18:51.389Z,14.75
2018-04-08T01:21:18.835Z,14.79
2018-04-08T01:23:46.329Z,14.66
2018-04-08T01:26:13.816Z,14.56
2018-04-08T01:28:41.284Z,14.56
2018-04-08T01:31:11.784Z,14.61
2018-04-08T01:33:39.209Z,14.53
2018-04-08T01:36:06.674Z,14.58
2018-04-08T01:38:34.702Z,14.62
2018-04-08T01:41:02.174Z,14.52
2018-04-08T01:43:29.735Z,14.41
2018-04-08T01:45:57.133Z,14.39
2018-04-08T01:48:24.535Z,14.43
2018-04-08T01:50:51.990Z,14.50
2018-04-08T01:53:19.384Z,14.49
2018-04-08T01:55:46.856Z,14.51
2018-04-08T01:58:17.443Z,14.51
2018-04-08T02:00:44.878Z,14.53
2018-04-08T02:03:12.299Z,14.51
2018-04-08T02:05:39.752Z,14.52
2018-04-08T02:08:07.196Z,14.55
2018-04-08T02:10:34.629Z,14.56
2018-04-08T02:13:02.274Z,14.46
2018-04-08T02:15:29.684Z,14.37
2018-04-08T02:17:57.080Z,14.33
2018-04-08T02:20:24.517Z,14.15
2018-04-08T02:22:55.062Z,14.07
2018-04-08T02:25:22.488Z,14.10
2018-04-08T02:27:49.912Z,14.15
2018-04-08T02:30:17.320Z,14.19
2018-04-08T02:32:44.756Z,14.20
2018-04-08T02:35:12.171Z,14.09
2018-04-08T02:37:39.627Z,14.01
2018-04-08T02:40:07.066Z,14.01
2018-04-08T02:42:35.138Z,14.04
2018-04-08T02:45:02.558Z,14.15
2018-04-08T02:47:30.031Z,14.24
2018-04-08T02:49:57.416Z,14.30
2018-04-08T02:52:24.870Z,14.34
2018-04-08T02:54:52.356Z,14.38
2018-04-08T02:57:19.769Z,14.41
2018-04-08T02:59:47.410Z,14.44
2018-04-08T03:02:14.792Z,14.47
2018-04-08T03:04:42.252Z,14.44
2018-04-08T03:07:09.726Z,14.46
2018-04-08T03:09:37.194Z,14.45
2018-04-08T03:12:04.661Z,14.41
2018-04-08T03:14:32.189Z,14.37
2018-04-08T03:16:59.630Z,14.39
2018-04-08T03:19:27.044Z,14.36
2018-04-08T03:21:54.586Z,14.36
2018-04-08T03:24:22.030Z,14.32
2018-04-08T03:26:49.490Z,14.25
2018-04-08T03:29:19.839Z,14.18
2018-04-08T03:31:47.320Z,14.13
2018-04-08T03:34:14.947Z,14.09
2018-04-08T03:36:42.381Z,14.11
2018-04-08T03:39:09.838Z,14.13
2018-04-08T03:41:37.278Z,14.12
2018-04-08T03:44:04.719Z,14.07
2018-04-08T03:46:32.197Z,14.06
2018-04-08T03:48:59.684Z,14.02
2018-04-08T03:51:30.238Z,13.89
2018-04-08T03:53:57.671Z,13.68
2018-04-08T03:56:25.087Z,13.58
2018-04-08T03:58:52.526Z,13.50
2018-04-08T04:01:19.998Z,13.46
2018-04-08T04:03:47.414Z,13.36
2018-04-08T04:06:14.832Z,13.30
2018-04-08T04:08:42.553Z,13.29
2018-04-08T04:11:09.985Z,13.31
2018-04-08T04:13:37.414Z,13.30
2018-04-08T04:16:04.843Z,13.31
2018-04-08T04:18:44.047Z,13.35
2018-04-08T04:21:23.093Z,13.42
2018-04-08T04:24:02.883Z,13.41
2018-04-08T04:26:31.116Z,13.41
2018-04-08T04:28:58.580Z,13.43
2018-04-08T04:31:26.013Z,13.48
2018-04-08T04:33:53.468Z,13.43
2018-04-08T04:36:20.905Z,13.46
2018-04-08T04:38:48.345Z,13.50
2018-04-08T04:41:15.767Z,13.55
2018-04-08T04:43:43.349Z,13.60
2018-04-08T04:46:10.744Z,13.57
2018-04-08T04:48:38.191Z,13.46
2018-04-08T04:51:05.653Z,13.38
2018-04-08T04:53:33.119Z,13.39
2018-04-08T04:56:00.561Z,13.37
2018-04-08T04:58:28.029Z,13.39
2018-04-08T05:00:55.493Z,13.40
2018-04-08T05:03:23.104Z,13.35
2018-04-08T05:05:50.858Z,13.34
2018-04-08T05:08:18.335Z,13.38
2018-04-08T05:10:45.760Z,13.38
2018-04-08T05:13:13.199Z,13.36
2018-04-08T05:15:40.585Z,13.37
2018-04-08T05:18:07.988Z,13.40
2018-04-08T05:20:35.530Z,13.49
2018-04-08T05:23:06.159Z,13.54
2018-04-08T05:25:33.649Z,13.60
2018-04-08T05:28:01.088Z,13.64
2018-04-08T05:30:28.547Z,13.72
2018-04-08T05:32:56.050Z,13.79
2018-04-08T05:35:23.430Z,13.86
2018-04-08T05:37:50.832Z,13.94
2018-04-08T05:40:21.422Z,14.00
2018-04-08T05:42:48.858Z,14.01
2018-04-08T05:45:16.318Z,13.94
2018-04-08T05:47:43.773Z,13.93
2018-04-08T05:50:11.332Z,13.96
2018-04-08T05:52:38.783Z,14.10
2018-04-08T05:55:06.197Z,14.18
2018-04-08T05:57:36.858Z,14.30
2018-04-08T06:00:04.334Z,14.46
2018-04-08T06:02:31.750Z,14.70
2018-04-08T06:04:59.176Z,15.02
2018-04-08T06:07:26.695Z,15.29
2018-04-08T06:09:54.194Z,15.48
2018-04-08T06:12:21.603Z,15.59
2018-04-08T06:14:49.071Z,15.77
2018-04-08T06:17:16.786Z,15.99
2018-04-08T06:19:44.224Z,16.24
2018-04-08T06:22:11.685Z,16.43
2018-04-08T06:24:39.096Z,16.28
2018-04-08T06:27:06.529Z,16.12
2018-04-08T06:29:36.911Z,16.16
2018-04-08T06:32:04.388Z,16.58
2018-04-08T06:34:31.784Z,17.07
2018-04-08T06:36:59.215Z,17.48
2018-04-08T06:39:26.711Z,17.85
2018-04-08T06:41:54.153Z,17.86
2018-04-08T06:44:21.644Z,17.75
2018-04-08T06:46:49.120Z,17.34
2018-04-08T06:49:16.555Z,17.14
2018-04-08T06:51:47.027Z,17.43
2018-04-08T06:54:14.453Z,17.80
2018-04-08T06:56:41.845Z,17.82
2018-04-08T06:59:09.282Z,17.08
2018-04-08T07:01:36.756Z,16.56
2018-04-08T07:04:04.195Z,16.31
2018-04-08T07:06:31.626Z,16.21
2018-04-08T07:08:59.068Z,15.88
2018-04-08T07:11:26.537Z,15.81
2018-04-08T07:13:53.924Z,15.99
2018-04-08T07:16:21.364Z,16.33
2018-04-08T07:18:48.798Z,16.64
2018-04-08T07:21:16.216Z,16.69
2018-04-08T07:23:46.745Z,17.12
2018-04-08T07:26:14.146Z,17.42
2018-04-08T07:28:41.588Z,17.70
2018-04-08T07:31:09.034Z,17.99
2018-04-08T07:33:36.482Z,18.26
2018-04-08T07:36:03.987Z,18.38
2018-04-08T07:38:31.384Z,18.52
2018-04-08T07:40:58.880Z,18.65
2018-04-08T07:43:26.367Z,18.81
2018-04-08T07:45:53.774Z,19.18
2018-04-08T07:48:21.474Z,19.23
2018-04-08T07:50:49.019Z,19.11
2018-04-08T07:53:16.436Z,19.03
2018-04-08T07:55:43.883Z,18.97
2018-04-08T07:58:11.313Z,18.83
2018-04-08T08:00:38.704Z,18.37
2018-04-08T08:03:06.198Z,17.96
2018-04-08T08:05:33.605Z,17.93
2018-04-08T08:08:01.082Z,18.09
2018-04-08T08:10:28.550Z,18.14
2018-04-08T08:12:55.966Z,18.13
2018-04-08T08:15:23.407Z,18.09
2018-04-08T08:17:50.816Z,17.99
2018-04-08T08:20:18.286Z,17.88
2018-04-08T08:22:45.708Z,17.81
2018-04-08T08:25:16.393Z,17.71
2018-04-08T08:27:44.286Z,17.69
2018-04-08T08:30:11.713Z,17.81
2018-04-08T08:32:39.605Z,18.04
2018-04-08T08:35:06.994Z,18.21
2018-04-08T08:37:34.473Z,18.31
2018-04-08T08:40:01.965Z,18.28
2018-04-08T08:42:29.411Z,18.44
2018-04-08T08:44:56.834Z,18.55
2018-04-08T08:47:24.279Z,18.74
2018-04-08T08:49:51.714Z,18.76
2018-04-08T08:52:19.153Z,18.67
2018-04-08T08:54:46.603Z,18.59
2018-04-08T08:57:14.026Z,18.71
2018-04-08T08:59:41.638Z,18.69
2018-04-08T09:02:12.355Z,18.63
2018-04-08T09:04:39.744Z,18.45
2018-04-08T09:07:07.187Z,18.52
2018-04-08T09:09:34.799Z,18.70
2018-04-08T09:12:02.318Z,18.84
2018-04-08T09:14:29.752Z,18.92
2018-04-08T09:16:57.232Z,19.00
2018-04-08T09:19:27.401Z,19.29
2018-04-08T09:24:57.032Z,21.94
2018-04-08T09:27:27.753Z,22.43
2018-04-08T09:29:55.233Z,22.62
2018-04-08T09:32:22.666Z,22.75
2018-04-08T09:34:50.677Z,23.17
2018-04-08T09:37:18.329Z,23.21
2018-04-08T09:39:45.765Z,22.94
2018-04-08T09:42:13.233Z,22.95
2018-04-08T09:44:40.722Z,23.11
2018-04-08T09:47:08.156Z,23.14
2018-04-08T09:49:35.552Z,22.86
2018-04-08T09:52:06.189Z,22.67
2018-04-08T09:54:33.582Z,22.47
2018-04-08T09:57:01.587Z,22.70
2018-04-08T09:59:29.057Z,22.93
2018-04-08T10:02:12.004Z,23.03
2018-04-08T10:04:39.499Z,23.18
2018-04-08T10:07:20.146Z,23.21
2018-04-08T10:09:47.650Z,23.59
2018-04-08T10:12:15.119Z,23.86
2018-04-08T10:14:42.524Z,24.04
2018-04-08T10:17:10.097Z,24.04
2018-04-08T10:19:37.543Z,24.22
2018-04-08T10:22:05.064Z,24.77
2018-04-08T10:24:32.472Z,25.28
2018-04-08T10:26:59.870Z,25.52
2018-04-08T10:29:27.300Z,25.75
2018-04-08T10:31:54.879Z,25.59
2018-04-08T10:34:22.328Z,25.18
2018-04-08T10:36:49.799Z,25.15
2018-04-08T10:39:17.834Z,24.99
2018-04-08T10:41:45.415Z,25.00
2018-04-08T10:44:12.903Z,24.91
2018-04-08T10:46:40.728Z,24.55
2018-04-08T10:49:08.156Z,24.12
2018-04-08T10:51:35.647Z,24.16
2018-04-08T10:54:03.341Z,23.90
2018-04-08T10:56:34.144Z,23.55
2018-04-08T10:59:01.548Z,23.21
2018-04-08T11:01:29.037Z,23.04
2018-04-08T11:03:56.425Z,23.01
2018-04-08T11:06:23.892Z,23.21
2018-04-08T11:08:51.358Z,23.46
2018-04-08T11:11:18.762Z,23.74
2018-04-08T11:13:46.518Z,24.13
2018-04-08T11:16:13.944Z,24.25
2018-04-08T11:18:41.407Z,23.98
2018-04-08T11:21:08.841Z,24.27
2018-04-08T11:23:36.275Z,24.60
2018-04-08T11:26:03.926Z,24.34
2018-04-08T11:28:31.423Z,24.02
2018-04-08T11:30:58.845Z,23.66
2018-04-08T11:33:26.266Z,23.53
2018-04-08T11:35:53.740Z,23.48
2018-04-08T11:38:21.199Z,23.66
2018-04-08T11:40:48.687Z,23.90
2018-04-08T11:43:16.227Z,23.89
2018-04-08T11:45:43.718Z,23.82
2018-04-08T11:48:12.111Z,23.70
2018-04-08T11:50:39.500Z,23.59
2018-04-08T11:53:07.228Z,23.53
2018-04-08T11:55:35.006Z,23.57
2018-04-08T11:58:02.432Z,23.47
2018-04-08T12:00:29.877Z,23.60
2018-04-08T12:02:57.293Z,23.97
2018-04-08T12:05:24.773Z,24.37
2018-04-08T12:07:52.260Z,24.28
2018-04-08T12:10:19.736Z,24.51
2018-04-08T12:12:47.206Z,24.55
2018-04-08T12:15:14.681Z,24.44
2018-04-08T12:17:42.140Z,24.42
2018-04-08T12:20:09.579Z,24.38
2018-04-08T12:22:37.044Z,24.60
2018-04-08T12:25:04.447Z,24.60
2018-04-08T12:27:31.889Z,24.50
2018-04-08T12:29:59.398Z,24.40
2018-04-08T12:32:26.883Z,24.20
2018-04-08T12:34:54.317Z,23.75
2018-04-08T12:37:21.798Z,23.51
2018-04-08T12:39:49.221Z,23.36
2018-04-08T12:42:16.690Z,23.44
2018-04-08T12:44:44.192Z,23.45
2018-04-08T12:47:12.108Z,23.59
2018-04-08T12:49:39.584Z,23.92
2018-04-08T12:52:07.032Z,23.96
2018-04-08T12:54:34.457Z,23.75
2018-04-08T12:57:01.939Z,23.57
2018-04-08T12:59:29.420Z,23.54
2018-04-08T13:01:56.908Z,23.53
2018-04-08T13:04:24.376Z,23.49
2018-04-08T13:06:51.831Z,23.38
2018-04-08T13:09:19.261Z,23.26
2018-04-08T13:11:46.685Z,23.22
2018-04-08T13:14:14.209Z,23.25
2018-04-08T13:16:41.631Z,23.25
2018-04-08T13:19:09.046Z,23.16
2018-04-08T13:21:36.444Z,23.07
2018-04-08T13:24:03.893Z,22.98
2018-04-08T13:26:31.300Z,22.90
2018-04-08T13:28:58.733Z,22.88
2018-04-08T13:31:26.136Z,22.90
2018-04-08T13:33:54.780Z,22.85
2018-04-08T13:36:22.250Z,22.80
2018-04-08T13:38:49.662Z,22.78
2018-04-08T13:41:17.124Z,22.81
2018-04-08T13:43:44.608Z,22.75
2018-04-08T13:46:12.050Z,22.59
2018-04-08T13:48:39.451Z,22.41
2018-04-08T13:51:06.914Z,22.34
2018-04-08T13:53:34.354Z,22.35
2018-04-08T13:56:01.807Z,22.26
2018-04-08T13:58:29.336Z,22.19
2018-04-08T14:00:56.761Z,22.12
2018-04-08T14:03:24.249Z,21.96
2018-04-08T14:05:51.710Z,21.82
2018-04-08T14:08:19.186Z,21.80
2018-04-08T14:10:46.638Z,21.70
2018-04-08T14:13:14.081Z,21.56
2018-04-08T14:15:41.471Z,21.37
2018-04-08T14:18:08.928Z,21.34
2018-04-08T14:20:36.314Z,21.29
2018-04-08T14:23:03.708Z,21.20
2018-04-08T14:25:31.174Z,21.12
2018-04-08T14:27:58.650Z,21.07
2018-04-08T14:30:26.077Z,21.05
2018-04-08T14:32:53.543Z,20.98
2018-04-08T14:35:20.984Z,20.92
2018-04-08T14:37:48.453Z,20.81
2018-04-08T14:40:15.849Z,20.77
2018-04-08T14:42:43.367Z,20.65
2018-04-08T14:45:10.850Z,20.63
2018-04-08T14:47:38.351Z,20.58
2018-04-08T14:50:05.814Z,20.53
2018-04-08T14:52:33.255Z,20.49
2018-04-08T14:55:00.730Z,20.46
2018-04-08T14:57:28.157Z,20.48
2018-04-08T14:59:55.638Z,20.44
2018-04-08T15:02:23.085Z,20.43
2018-04-08T15:04:50.489Z,20.39
2018-04-08T15:07:17.886Z,20.44
2018-04-08T15:09:45.341Z,20.41
2018-04-08T15:12:12.795Z,20.40
2018-04-08T15:14:40.193Z,20.41
2018-04-08T15:17:07.663Z,20.39
2018-04-08T15:19:35.164Z,20.26
2018-04-08T15:22:02.614Z,20.30
2018-04-08T15:24:30.008Z,20.33
2018-04-08T15:26:57.488Z,20.31
2018-04-08T15:29:24.925Z,20.28
2018-04-08T15:31:52.369Z,20.30
2018-04-08T15:34:19.853Z,20.30
2018-04-08T15:36:47.251Z,20.31
2018-04-08T15:39:14.719Z,20.30
2018-04-08T15:41:42.194Z,20.30
2018-04-08T15:44:09.769Z,20.16
2018-04-08T15:46:37.406Z,20.20
2018-04-08T15:49:04.908Z,20.24
2018-04-08T15:51:32.392Z,20.17
2018-04-08T15:54:00.662Z,20.10
2018-04-08T15:56:28.063Z,20.13
2018-04-08T15:58:55.534Z,20.22
2018-04-08T16:01:22.959Z,20.23
2018-04-08T16:03:50.487Z,20.19
2018-04-08T16:06:17.910Z,20.03
2018-04-08T16:08:45.505Z,20.05
2018-04-08T16:11:12.938Z,20.08
2018-04-08T16:13:40.389Z,20.17
2018-04-08T16:16:07.855Z,20.21
2018-04-08T16:18:35.286Z,20.27
2018-04-08T16:21:02.763Z,20.32
2018-04-08T16:23:30.172Z,20.31
2018-04-08T16:25:57.642Z,20.33
2018-04-08T16:28:25.065Z,20.35
2018-04-08T16:30:52.545Z,20.43
2018-04-08T16:33:20.029Z,20.51
2018-04-08T16:35:47.455Z,20.54
2018-04-08T16:38:15.002Z,20.54
2018-04-08T16:40:42.468Z,20.53
2018-04-08T16:43:09.958Z,20.55
2018-04-08T16:45:37.476Z,20.59
2018-04-08T16:48:04.900Z,20.63
2018-04-08T16:50:32.379Z,20.59
2018-04-08T16:52:59.851Z,20.51
2018-04-08T16:55:27.460Z,20.45
2018-04-08T16:57:54.936Z,20.39
2018-04-08T17:00:22.374Z,20.38
2018-04-08T17:02:49.797Z,20.41
2018-04-08T17:05:17.216Z,20.42
2018-04-08T17:07:44.657Z,20.47
2018-04-08T17:10:12.087Z,20.46
2018-04-08T17:12:39.902Z,20.34
2018-04-08T17:15:07.319Z,20.24
2018-04-08T17:17:34.755Z,20.15
2018-04-08T17:20:02.249Z,20.13
2018-04-08T17:22:29.612Z,20.12
2018-04-08T17:24:57.104Z,20.03
2018-04-08T17:27:24.570Z,19.91
2018-04-08T17:29:51.980Z,19.80
2018-04-08T17:32:19.380Z,19.77
2018-04-08T17:34:47.156Z,19.74
2018-04-08T17:37:14.628Z,19.69
2018-04-08T17:39:42.064Z,19.61
2018-04-08T17:42:09.450Z,19.52
2018-04-08T17:44:36.905Z,19.45
2018-04-08T17:47:04.388Z,19.42
2018-04-08T17:49:31.781Z,19.29
2018-04-08T17:51:59.254Z,19.15
2018-04-08T17:54:26.700Z,19.00
2018-04-08T17:56:54.150Z,18.92
2018-04-08T17:59:21.626Z,18.87
2018-04-08T18:01:49.040Z,18.80
2018-04-08T18:04:16.517Z,18.72
2018-04-08T18:06:43.936Z,18.70
2018-04-08T18:09:11.338Z,18.61
2018-04-08T18:11:38.803Z,18.53
2018-04-08T18:14:06.220Z,18.46
2018-04-08T18:16:34.327Z,18.42
2018-04-08T18:19:01.786Z,18.33
2018-04-08T18:21:29.235Z,18.14
2018-04-08T18:23:56.706Z,18.06
2018-04-08T18:26:24.140Z,17.95
2018-04-08T18:28:51.605Z,17.89
2018-04-08T18:31:19.033Z,17.84
2018-04-08T18:33:46.477Z,17.71
2018-04-08T18:36:13.956Z,17.62
2018-04-08T18:38:41.448Z,17.60
2018-04-08T18:41:08.885Z,17.53
2018-04-08T18:43:36.361Z,17.42
2018-04-08T18:46:03.832Z,17.31
2018-04-08T18:48:31.288Z,17.29
2018-04-08T18:50:58.718Z,17.25
2018-04-08T18:53:26.295Z,17.27
2018-04-08T18:55:53.741Z,17.25
2018-04-08T18:58:21.631Z,17.27
2018-04-08T19:00:49.070Z,17.22
2018-04-08T19:03:16.515Z,17.17
2018-04-08T19:05:43.978Z,17.12
2018-04-08T19:08:11.431Z,17.07
2018-04-08T19:10:38.871Z,17.00
2018-04-08T19:13:06.278Z,16.99
2018-04-08T19:15:33.854Z,16.91
2018-04-08T19:18:03.396Z,16.84
2018-04-08T19:20:30.852Z,16.89
2018-04-08T19:22:58.317Z,16.95
2018-04-08T19:25:25.787Z,16.93
2018-04-08T19:27:53.259Z,16.90
2018-04-08T19:30:21.150Z,16.85
2018-04-08T19:32:49.106Z,16.77
2018-04-08T19:35:16.542Z,16.72
2018-04-08T19:37:44.187Z,16.74
2018-04-08T19:40:11.866Z,16.77
2018-04-08T19:42:39.319Z,16.75
2018-04-08T19:45:06.738Z,16.76
2018-04-08T19:47:34.962Z,16.75
2018-04-08T19:50:02.597Z,16.75
2018-04-08T19:52:30.067Z,16.81
2018-04-08T19:54:57.537Z,16.82
2018-04-08T19:57:24.967Z,16.86
2018-04-08T19:59:52.385Z,16.87
2018-04-08T20:02:19.858Z,16.70
2018-04-08T20:04:47.337Z,16.55
2018-04-08T20:07:14.837Z,16.49
2018-04-08T20:09:42.240Z,16.47
2018-04-08T20:12:09.666Z,16.47
2018-04-08T20:14:37.113Z,16.49
2018-04-08T20:17:04.503Z,16.53
2018-04-08T20:19:31.952Z,16.57
2018-04-08T20:21:59.419Z,16.50
2018-04-08T20:24:26.821Z,16.46
2018-04-08T20:26:54.220Z,16.42
2018-04-08T20:29:21.637Z,16.39
2018-04-08T20:31:49.043Z,16.32
2018-04-08T20:34:16.503Z,16.33
2018-04-08T20:36:44.097Z,16.21
2018-04-08T20:39:11.581Z,16.13
2018-04-08T20:41:39.017Z,16.06
2018-04-08T20:44:06.479Z,16.01
2018-04-08T20:46:33.942Z,16.02
2018-04-08T20:49:01.379Z,16.06
2018-04-08T20:51:28.824Z,16.10
2018-04-08T20:53:56.254Z,16.09
2018-04-08T20:56:23.733Z,16.01
2018-04-08T20:58:51.172Z,15.99
2018-04-08T21:01:18.642Z,16.00
2018-04-08T21:03:46.076Z,16.04
2018-04-08T21:06:13.528Z,16.06
2018-04-08T21:08:40.952Z,16.08
2018-04-08T21:11:08.380Z,16.09
2018-04-08T21:13:36.033Z,16.02
2018-04-08T21:16:03.465Z,16.01
2018-04-08T21:18:30.995Z,15.96
2018-04-08T21:20:58.784Z,15.98
2018-04-08T21:23:26.244Z,16.05
2018-04-08T21:25:53.877Z,16.04
2018-04-08T21:28:21.377Z,15.94
2018-04-08T21:30:48.816Z,15.92
2018-04-08T21:33:16.267Z,15.97
2018-04-08T21:35:43.668Z,16.08
2018-04-08T21:38:11.134Z,16.06
2018-04-08T21:40:38.565Z,15.87
2018-04-08T21:43:06.038Z,15.72
2018-04-08T21:45:33.459Z,15.62
2018-04-08T21:48:00.926Z,15.66
2018-04-08T21:50:28.340Z,15.50
2018-04-08T21:52:55.783Z,15.43
2018-04-08T21:55:23.345Z,15.49
2018-04-08T21:57:50.777Z,15.64
2018-04-08T22:00:18.244Z,15.68
2018-04-08T22:02:45.708Z,15.71
2018-04-08T22:05:13.875Z,15.72
2018-04-08T22:07:41.268Z,15.72
2018-04-08T22:10:09.276Z,15.74
2018-04-08T22:12:36.750Z,15.79
2018-04-08T22:15:04.140Z,15.83
2018-04-08T22:17:31.562Z,15.84
2018-04-08T22:19:59.029Z,15.84
2018-04-08T22:22:26.424Z,15.84
2018-04-08T22:24:53.861Z,15.85
2018-04-08T22:27:21.335Z,15.84
2018-04-08T22:29:49.177Z,15.85
2018-04-08T22:32:16.619Z,15.80
2018-04-08T22:34:44.063Z,15.84
2018-04-08T22:37:11.460Z,15.86
2018-04-08T22:39:38.943Z,15.92
2018-04-08T22:42:06.881Z,15.91
2018-04-08T22:44:34.272Z,15.88
2018-04-08T22:47:01.713Z,15.93
2018-04-08T22:49:29.128Z,15.98
2018-04-08T22:51:56.556Z,15.96
2018-04-08T22:54:24.573Z,15.96
2018-04-08T22:56:51.999Z,16.00
2018-04-08T22:59:20.122Z,15.95
2018-04-08T23:01:47.549Z,15.87
2018-04-08T23:04:14.937Z,15.86
2018-04-08T23:06:42.475Z,15.83
2018-04-08T23:09:09.958Z,15.82
2018-04-08T23:11:37.403Z,15.86
2018-04-08T23:14:04.877Z,15.93
2018-04-08T23:16:32.340Z,15.95
2018-04-08T23:19:00.313Z,15.99
2018-04-08T23:21:27.725Z,16.02
2018-04-08T23:23:55.136Z,16.04
2018-04-08T23:26:22.586Z,16.04
2018-04-08T23:28:49.972Z,16.03
2018-04-08T23:31:17.550Z,15.95
2018-04-08T23:33:44.979Z,15.90
2018-04-08T23:36:12.391Z,15.85
2018-04-08T23:38:39.833Z,15.79
2018-04-08T23:41:07.293Z,15.76
2018-04-08T23:43:34.696Z,15.72
2018-04-08T23:46:02.096Z,15.70
2018-04-08T23:48:29.529Z,15.69
2018-04-08T23:50:56.949Z,15.69
2018-04-08T23:53:24.416Z,15.67
2018-04-08T23:55:51.841Z,15.68
2018-04-08T23:58:19.267Z,15.74
